sensor_id;sensor_type;location;lat;lon;timestamp;temperature;humidity
59857;DHT22;45733;52.668;6.860;2023-10-19T00:01:39;9.30;99.90
59857;DHT22;45733;52.668;6.860;2023-10-19T00:04:04;9.10;99.90
59857;DHT22;45733;52.668;6.860;2023-10-19T00:06:32;9.20;99.90
59857;DHT22;45733;52.668;6.860;2023-10-19T00:08:58;9.10;99.90
59857;DHT22;45733;52.668;6.860;2023-10-19T00:11:25;9.10;99.90
59857;DHT22;45733;52.668;6.860;2023-10-19T00:13:52;9.20;99.90
59857;DHT22;45733;52.668;6.860;2023-10-19T00:16:20;9.20;99.90
59857;DHT22;45733;52.668;6.860;2023-10-19T00:18:54;9.20;99.90
59857;DHT22;45733;52.668;6.860;2023-10-19T00:21:25;9.50;99.90
59857;DHT22;45733;52.668;6.860;2023-10-19T00:23:54;9.40;99.90
59857;DHT22;45733;52.668;6.860;2023-10-19T00:26:24;9.40;99.90
59857;DHT22;45733;52.668;6.860;2023-10-19T00:28:55;9.50;99.90
59857;DHT22;45733;52.668;6.860;2023-10-19T00:31:25;9.30;99.90
59857;DHT22;45733;52.668;6.860;2023-10-19T00:33:53;9.30;99.90
59857;DHT22;45733;52.668;6.860;2023-10-19T00:36:20;9.40;99.90
59857;DHT22;45733;52.668;6.860;2023-10-19T00:38:47;9.30;99.90
59857;DHT22;45733;52.668;6.860;2023-10-19T00:41:25;9.20;99.90
59857;DHT22;45733;52.668;6.860;2023-10-19T00:43:59;9.20;99.90
59857;DHT22;45733;52.668;6.860;2023-10-19T00:46:38;9.30;99.90
59857;DHT22;45733;52.668;6.860;2023-10-19T00:49:07;9.20;99.90
59857;DHT22;45733;52.668;6.860;2023-10-19T00:51:44;9.30;99.90
59857;DHT22;45733;52.668;6.860;2023-10-19T00:54:34;9.60;99.90
59857;DHT22;45733;52.668;6.860;2023-10-19T00:57:04;9.60;99.90
59857;DHT22;45733;52.668;6.860;2023-10-19T00:59:41;9.50;99.90
59857;DHT22;45733;52.668;6.860;2023-10-19T01:02:37;9.60;99.90
59857;DHT22;45733;52.668;6.860;2023-10-19T01:05:09;9.40;99.90
59857;DHT22;45733;52.668;6.860;2023-10-19T01:07:39;9.40;99.90
59857;DHT22;45733;52.668;6.860;2023-10-19T01:10:09;9.60;99.90
59857;DHT22;45733;52.668;6.860;2023-10-19T01:12:45;9.30;99.90
59857;DHT22;45733;52.668;6.860;2023-10-19T01:15:20;9.30;99.90
59857;DHT22;45733;52.668;6.860;2023-10-19T01:17:58;9.60;99.90
59857;DHT22;45733;52.668;6.860;2023-10-19T01:20:29;9.30;99.90
59857;DHT22;45733;52.668;6.860;2023-10-19T01:22:57;9.70;99.90
59857;DHT22;45733;52.668;6.860;2023-10-19T01:28:09;9.30;99.90
59857;DHT22;45733;52.668;6.860;2023-10-19T01:30:38;9.30;99.90
59857;DHT22;45733;52.668;6.860;2023-10-19T01:33:04;9.40;99.90
59857;DHT22;45733;52.668;6.860;2023-10-19T01:35:38;9.70;99.90
59857;DHT22;45733;52.668;6.860;2023-10-19T01:38:22;9.80;99.90
59857;DHT22;45733;52.668;6.860;2023-10-19T01:40:48;9.60;99.90
59857;DHT22;45733;52.668;6.860;2023-10-19T01:43:17;9.70;99.90
59857;DHT22;45733;52.668;6.860;2023-10-19T01:45:52;9.50;99.90
59857;DHT22;45733;52.668;6.860;2023-10-19T01:48:21;9.70;99.90
59857;DHT22;45733;52.668;6.860;2023-10-19T01:50:48;9.80;99.90
59857;DHT22;45733;52.668;6.860;2023-10-19T01:53:17;9.80;99.90
59857;DHT22;45733;52.668;6.860;2023-10-19T01:55:44;9.60;99.90
59857;DHT22;45733;52.668;6.860;2023-10-19T01:58:12;9.80;99.90
59857;DHT22;45733;52.668;6.860;2023-10-19T02:00:40;9.80;99.90
59857;DHT22;45733;52.668;6.860;2023-10-19T02:03:08;9.50;99.90
59857;DHT22;45733;52.668;6.860;2023-10-19T02:05:34;9.90;99.90
59857;DHT22;45733;52.668;6.860;2023-10-19T02:08:07;9.40;99.90
59857;DHT22;45733;52.668;6.860;2023-10-19T02:10:36;9.40;99.90
59857;DHT22;45733;52.668;6.860;2023-10-19T02:13:03;9.90;99.90
59857;DHT22;45733;52.668;6.860;2023-10-19T02:15:33;9.80;99.90
59857;DHT22;45733;52.668;6.860;2023-10-19T02:18:03;9.60;99.90
59857;DHT22;45733;52.668;6.860;2023-10-19T02:20:29;9.60;99.90
59857;DHT22;45733;52.668;6.860;2023-10-19T02:22:55;10.00;99.90
59857;DHT22;45733;52.668;6.860;2023-10-19T02:25:23;9.60;99.90
59857;DHT22;45733;52.668;6.860;2023-10-19T02:27:56;9.40;99.90
59857;DHT22;45733;52.668;6.860;2023-10-19T02:30:22;10.00;99.90
59857;DHT22;45733;52.668;6.860;2023-10-19T02:32:50;9.70;99.90
59857;DHT22;45733;52.668;6.860;2023-10-19T02:35:16;9.90;99.90
59857;DHT22;45733;52.668;6.860;2023-10-19T02:37:42;9.50;99.90
59857;DHT22;45733;52.668;6.860;2023-10-19T02:40:08;9.60;99.90
59857;DHT22;45733;52.668;6.860;2023-10-19T02:42:48;9.60;99.90
59857;DHT22;45733;52.668;6.860;2023-10-19T02:45:15;10.00;99.90
59857;DHT22;45733;52.668;6.860;2023-10-19T02:47:43;10.00;99.90
59857;DHT22;45733;52.668;6.860;2023-10-19T02:50:09;9.70;99.90
59857;DHT22;45733;52.668;6.860;2023-10-19T02:52:38;10.10;99.90
59857;DHT22;45733;52.668;6.860;2023-10-19T02:55:04;10.10;99.90
59857;DHT22;45733;52.668;6.860;2023-10-19T02:57:30;9.70;99.90
59857;DHT22;45733;52.668;6.860;2023-10-19T02:59:56;10.00;99.90
59857;DHT22;45733;52.668;6.860;2023-10-19T03:02:23;9.60;99.90
59857;DHT22;45733;52.668;6.860;2023-10-19T03:04:57;10.00;99.90
59857;DHT22;45733;52.668;6.860;2023-10-19T03:07:24;9.80;99.90
59857;DHT22;45733;52.668;6.860;2023-10-19T03:09:49;9.90;99.90
59857;DHT22;45733;52.668;6.860;2023-10-19T03:12:19;9.70;99.90
59857;DHT22;45733;52.668;6.860;2023-10-19T03:14:46;10.10;99.90
59857;DHT22;45733;52.668;6.860;2023-10-19T03:17:15;9.90;99.90
59857;DHT22;45733;52.668;6.860;2023-10-19T03:19:41;10.20;99.90
59857;DHT22;45733;52.668;6.860;2023-10-19T03:22:07;9.90;99.90
59857;DHT22;45733;52.668;6.860;2023-10-19T03:24:34;9.90;99.90
59857;DHT22;45733;52.668;6.860;2023-10-19T03:27:07;10.10;99.90
59857;DHT22;45733;52.668;6.860;2023-10-19T03:29:50;9.90;99.90
59857;DHT22;45733;52.668;6.860;2023-10-19T03:32:23;9.90;99.90
59857;DHT22;45733;52.668;6.860;2023-10-19T03:34:54;10.30;99.90
59857;DHT22;45733;52.668;6.860;2023-10-19T03:37:22;9.90;99.90
59857;DHT22;45733;52.668;6.860;2023-10-19T03:39:50;9.80;99.90
59857;DHT22;45733;52.668;6.860;2023-10-19T03:42:17;10.20;99.90
59857;DHT22;45733;52.668;6.860;2023-10-19T03:44:42;10.40;99.90
59857;DHT22;45733;52.668;6.860;2023-10-19T03:47:08;10.00;99.90
59857;DHT22;45733;52.668;6.860;2023-10-19T03:49:38;10.50;99.90
59857;DHT22;45733;52.668;6.860;2023-10-19T03:52:08;10.50;99.90
59857;DHT22;45733;52.668;6.860;2023-10-19T03:54:34;10.20;99.90
59857;DHT22;45733;52.668;6.860;2023-10-19T03:57:04;10.20;99.90
59857;DHT22;45733;52.668;6.860;2023-10-19T03:59:32;10.10;99.90
59857;DHT22;45733;52.668;6.860;2023-10-19T04:02:00;10.30;99.90
59857;DHT22;45733;52.668;6.860;2023-10-19T04:04:32;10.10;99.90
59857;DHT22;45733;52.668;6.860;2023-10-19T04:06:59;10.50;99.90
59857;DHT22;45733;52.668;6.860;2023-10-19T04:09:25;10.40;99.90
59857;DHT22;45733;52.668;6.860;2023-10-19T04:11:55;10.30;99.90
59857;DHT22;45733;52.668;6.860;2023-10-19T04:14:21;10.30;99.90
59857;DHT22;45733;52.668;6.860;2023-10-19T04:16:47;10.60;99.90
59857;DHT22;45733;52.668;6.860;2023-10-19T04:19:14;10.70;99.90
59857;DHT22;45733;52.668;6.860;2023-10-19T04:21:41;10.60;99.90
59857;DHT22;45733;52.668;6.860;2023-10-19T04:24:12;10.40;99.90
59857;DHT22;45733;52.668;6.860;2023-10-19T04:26:38;10.90;99.90
59857;DHT22;45733;52.668;6.860;2023-10-19T04:29:05;10.90;99.90
59857;DHT22;45733;52.668;6.860;2023-10-19T04:31:39;10.70;99.90
59857;DHT22;45733;52.668;6.860;2023-10-19T04:34:15;10.80;99.90
59857;DHT22;45733;52.668;6.860;2023-10-19T04:36:42;10.40;99.90
59857;DHT22;45733;52.668;6.860;2023-10-19T04:39:08;10.60;99.90
59857;DHT22;45733;52.668;6.860;2023-10-19T04:41:40;10.20;99.90
59857;DHT22;45733;52.668;6.860;2023-10-19T04:44:06;10.70;99.90
59857;DHT22;45733;52.668;6.860;2023-10-19T04:46:34;10.60;99.90
59857;DHT22;45733;52.668;6.860;2023-10-19T04:49:00;10.80;99.90
59857;DHT22;45733;52.668;6.860;2023-10-19T04:51:26;10.70;99.90
59857;DHT22;45733;52.668;6.860;2023-10-19T04:53:52;10.80;99.90
59857;DHT22;45733;52.668;6.860;2023-10-19T04:56:18;10.80;99.90
59857;DHT22;45733;52.668;6.860;2023-10-19T04:58:43;10.30;99.90
59857;DHT22;45733;52.668;6.860;2023-10-19T05:01:09;10.30;99.90
59857;DHT22;45733;52.668;6.860;2023-10-19T05:03:37;10.60;99.90
59857;DHT22;45733;52.668;6.860;2023-10-19T05:06:03;10.60;99.90
59857;DHT22;45733;52.668;6.860;2023-10-19T05:08:28;10.60;99.90
59857;DHT22;45733;52.668;6.860;2023-10-19T05:10:56;10.70;99.90
59857;DHT22;45733;52.668;6.860;2023-10-19T05:13:23;10.50;99.90
59857;DHT22;45733;52.668;6.860;2023-10-19T05:15:49;10.90;99.90
59857;DHT22;45733;52.668;6.860;2023-10-19T05:18:14;10.80;99.90
59857;DHT22;45733;52.668;6.860;2023-10-19T05:20:40;10.80;99.90
59857;DHT22;45733;52.668;6.860;2023-10-19T05:23:07;10.60;99.90
59857;DHT22;45733;52.668;6.860;2023-10-19T05:25:35;10.50;99.90
59857;DHT22;45733;52.668;6.860;2023-10-19T05:28:06;11.00;99.90
59857;DHT22;45733;52.668;6.860;2023-10-19T05:30:33;10.90;99.90
59857;DHT22;45733;52.668;6.860;2023-10-19T05:32:59;11.10;99.90
59857;DHT22;45733;52.668;6.860;2023-10-19T05:35:27;11.10;99.90
59857;DHT22;45733;52.668;6.860;2023-10-19T05:37:53;10.70;99.90
59857;DHT22;45733;52.668;6.860;2023-10-19T05:40:23;11.10;99.90
59857;DHT22;45733;52.668;6.860;2023-10-19T05:42:49;10.60;99.90
59857;DHT22;45733;52.668;6.860;2023-10-19T05:45:15;11.00;99.90
59857;DHT22;45733;52.668;6.860;2023-10-19T05:47:44;10.60;99.90
59857;DHT22;45733;52.668;6.860;2023-10-19T05:50:10;11.00;99.90
59857;DHT22;45733;52.668;6.860;2023-10-19T05:52:41;11.10;99.90
59857;DHT22;45733;52.668;6.860;2023-10-19T05:55:09;10.90;99.90
59857;DHT22;45733;52.668;6.860;2023-10-19T05:57:36;10.70;99.90
59857;DHT22;45733;52.668;6.860;2023-10-19T06:00:04;11.30;99.90
59857;DHT22;45733;52.668;6.860;2023-10-19T06:02:30;11.30;99.90
59857;DHT22;45733;52.668;6.860;2023-10-19T06:04:56;10.70;99.90
59857;DHT22;45733;52.668;6.860;2023-10-19T06:07:22;11.20;99.90
59857;DHT22;45733;52.668;6.860;2023-10-19T06:09:50;11.40;99.90
59857;DHT22;45733;52.668;6.860;2023-10-19T06:12:16;11.20;99.90
59857;DHT22;45733;52.668;6.860;2023-10-19T06:14:41;10.90;99.90
59857;DHT22;45733;52.668;6.860;2023-10-19T06:17:07;11.20;99.90
59857;DHT22;45733;52.668;6.860;2023-10-19T06:19:33;11.40;99.90
59857;DHT22;45733;52.668;6.860;2023-10-19T06:21:58;11.50;99.90
59857;DHT22;45733;52.668;6.860;2023-10-19T06:24:25;11.30;99.90
59857;DHT22;45733;52.668;6.860;2023-10-19T06:26:51;11.40;99.90
59857;DHT22;45733;52.668;6.860;2023-10-19T06:29:18;11.50;99.90
59857;DHT22;45733;52.668;6.860;2023-10-19T06:31:43;11.40;99.90
59857;DHT22;45733;52.668;6.860;2023-10-19T06:34:10;11.70;99.90
59857;DHT22;45733;52.668;6.860;2023-10-19T06:36:36;11.40;99.90
59857;DHT22;45733;52.668;6.860;2023-10-19T06:39:03;11.40;99.90
59857;DHT22;45733;52.668;6.860;2023-10-19T06:41:31;11.40;99.90
59857;DHT22;45733;52.668;6.860;2023-10-19T06:43:57;11.10;99.90
59857;DHT22;45733;52.668;6.860;2023-10-19T06:46:24;11.20;99.90
59857;DHT22;45733;52.668;6.860;2023-10-19T06:48:49;11.70;99.90
59857;DHT22;45733;52.668;6.860;2023-10-19T06:51:17;11.20;99.90
59857;DHT22;45733;52.668;6.860;2023-10-19T06:53:45;11.70;99.90
59857;DHT22;45733;52.668;6.860;2023-10-19T06:56:11;11.70;99.90
59857;DHT22;45733;52.668;6.860;2023-10-19T06:58:37;11.30;99.90
59857;DHT22;45733;52.668;6.860;2023-10-19T07:01:07;11.60;99.90
59857;DHT22;45733;52.668;6.860;2023-10-19T07:03:33;11.40;99.90
59857;DHT22;45733;52.668;6.860;2023-10-19T07:05:59;11.30;99.90
59857;DHT22;45733;52.668;6.860;2023-10-19T07:08:25;11.70;99.90
59857;DHT22;45733;52.668;6.860;2023-10-19T07:10:53;11.10;99.90
59857;DHT22;45733;52.668;6.860;2023-10-19T07:13:19;11.40;99.90
59857;DHT22;45733;52.668;6.860;2023-10-19T07:15:48;11.00;99.90
59857;DHT22;45733;52.668;6.860;2023-10-19T07:18:20;11.60;99.90
59857;DHT22;45733;52.668;6.860;2023-10-19T07:20:45;11.10;99.90
59857;DHT22;45733;52.668;6.860;2023-10-19T07:23:14;11.70;99.90
59857;DHT22;45733;52.668;6.860;2023-10-19T07:25:50;11.70;99.90
59857;DHT22;45733;52.668;6.860;2023-10-19T07:28:36;11.20;99.90
59857;DHT22;45733;52.668;6.860;2023-10-19T07:31:25;11.60;99.90
59857;DHT22;45733;52.668;6.860;2023-10-19T07:33:55;11.30;99.90
59857;DHT22;45733;52.668;6.860;2023-10-19T07:36:24;11.70;99.90
59857;DHT22;45733;52.668;6.860;2023-10-19T07:38:50;11.70;99.90
59857;DHT22;45733;52.668;6.860;2023-10-19T07:41:17;11.30;99.90
59857;DHT22;45733;52.668;6.860;2023-10-19T07:43:49;11.90;99.90
59857;DHT22;45733;52.668;6.860;2023-10-19T07:46:15;11.80;99.90
59857;DHT22;45733;52.668;6.860;2023-10-19T07:48:41;11.70;99.90
59857;DHT22;45733;52.668;6.860;2023-10-19T07:51:08;12.00;99.90
59857;DHT22;45733;52.668;6.860;2023-10-19T07:53:39;11.30;99.90
59857;DHT22;45733;52.668;6.860;2023-10-19T07:56:05;11.80;99.90
59857;DHT22;45733;52.668;6.860;2023-10-19T07:58:31;11.90;99.90
59857;DHT22;45733;52.668;6.860;2023-10-19T08:00:57;11.80;99.90
59857;DHT22;45733;52.668;6.860;2023-10-19T08:03:23;11.70;99.90
59857;DHT22;45733;52.668;6.860;2023-10-19T08:05:52;12.20;99.90
59857;DHT22;45733;52.668;6.860;2023-10-19T08:08:18;12.10;99.90
59857;DHT22;45733;52.668;6.860;2023-10-19T08:10:43;11.90;99.90
59857;DHT22;45733;52.668;6.860;2023-10-19T08:13:09;11.60;99.90
59857;DHT22;45733;52.668;6.860;2023-10-19T08:15:41;11.90;99.90
59857;DHT22;45733;52.668;6.860;2023-10-19T08:18:06;12.20;99.90
59857;DHT22;45733;52.668;6.860;2023-10-19T08:20:32;12.20;99.90
59857;DHT22;45733;52.668;6.860;2023-10-19T08:23:02;11.80;99.90
59857;DHT22;45733;52.668;6.860;2023-10-19T08:25:28;12.40;99.90
59857;DHT22;45733;52.668;6.860;2023-10-19T08:27:54;12.50;99.90
59857;DHT22;45733;52.668;6.860;2023-10-19T08:30:23;11.70;99.90
59857;DHT22;45733;52.668;6.860;2023-10-19T08:32:51;12.50;99.90
59857;DHT22;45733;52.668;6.860;2023-10-19T08:35:18;12.00;99.90
59857;DHT22;45733;52.668;6.860;2023-10-19T08:37:46;12.60;99.90
59857;DHT22;45733;52.668;6.860;2023-10-19T08:40:33;12.60;99.90
59857;DHT22;45733;52.668;6.860;2023-10-19T08:43:06;12.10;99.90
59857;DHT22;45733;52.668;6.860;2023-10-19T08:45:56;12.80;99.90
59857;DHT22;45733;52.668;6.860;2023-10-19T08:48:25;12.30;99.90
59857;DHT22;45733;52.668;6.860;2023-10-19T08:50:51;12.80;99.90
59857;DHT22;45733;52.668;6.860;2023-10-19T08:53:29;12.30;99.90
59857;DHT22;45733;52.668;6.860;2023-10-19T08:55:59;12.10;99.90
59857;DHT22;45733;52.668;6.860;2023-10-19T08:58:26;12.20;99.90
59857;DHT22;45733;52.668;6.860;2023-10-19T09:00:53;13.00;99.90
59857;DHT22;45733;52.668;6.860;2023-10-19T09:03:24;12.90;99.90
59857;DHT22;45733;52.668;6.860;2023-10-19T09:05:52;12.40;99.90
59857;DHT22;45733;52.668;6.860;2023-10-19T09:08:18;13.00;99.90
59857;DHT22;45733;52.668;6.860;2023-10-19T09:11:09;12.50;99.90
59857;DHT22;45733;52.668;6.860;2023-10-19T09:13:45;13.00;99.90
59857;DHT22;45733;52.668;6.860;2023-10-19T09:16:13;13.30;99.90
59857;DHT22;45733;52.668;6.860;2023-10-19T09:18:42;13.00;99.90
59857;DHT22;45733;52.668;6.860;2023-10-19T09:21:09;13.20;99.90
59857;DHT22;45733;52.668;6.860;2023-10-19T09:23:38;13.20;99.90
59857;DHT22;45733;52.668;6.860;2023-10-19T09:26:10;13.30;99.90
59857;DHT22;45733;52.668;6.860;2023-10-19T09:28:37;12.90;99.90
59857;DHT22;45733;52.668;6.860;2023-10-19T09:31:06;13.20;99.90
59857;DHT22;45733;52.668;6.860;2023-10-19T09:33:35;13.10;99.90
59857;DHT22;45733;52.668;6.860;2023-10-19T09:36:02;13.10;99.90
59857;DHT22;45733;52.668;6.860;2023-10-19T09:38:30;13.00;99.90
59857;DHT22;45733;52.668;6.860;2023-10-19T09:40:56;12.80;99.90
59857;DHT22;45733;52.668;6.860;2023-10-19T09:43:34;12.90;99.90
59857;DHT22;45733;52.668;6.860;2023-10-19T09:46:09;12.60;99.90
59857;DHT22;45733;52.668;6.860;2023-10-19T09:48:57;13.30;99.90
59857;DHT22;45733;52.668;6.860;2023-10-19T09:51:24;13.10;99.90
59857;DHT22;45733;52.668;6.860;2023-10-19T09:56:40;12.80;99.90
59857;DHT22;45733;52.668;6.860;2023-10-19T10:02:08;13.00;99.90
59857;DHT22;45733;52.668;6.860;2023-10-19T10:04:34;13.20;99.90
59857;DHT22;45733;52.668;6.860;2023-10-19T10:07:08;12.60;99.90
59857;DHT22;45733;52.668;6.860;2023-10-19T10:09:41;12.80;99.90
59857;DHT22;45733;52.668;6.860;2023-10-19T10:17:25;13.50;99.90
59857;DHT22;45733;52.668;6.860;2023-10-19T10:19:56;13.80;99.90
59857;DHT22;45733;52.668;6.860;2023-10-19T10:22:44;13.60;99.90
59857;DHT22;45733;52.668;6.860;2023-10-19T10:25:40;13.00;99.90
59857;DHT22;45733;52.668;6.860;2023-10-19T10:28:06;13.60;99.90
59857;DHT22;45733;52.668;6.860;2023-10-19T10:30:35;12.80;99.90
59857;DHT22;45733;52.668;6.860;2023-10-19T10:33:00;13.40;99.90
59857;DHT22;45733;52.668;6.860;2023-10-19T10:38:10;12.90;99.90
59857;DHT22;45733;52.668;6.860;2023-10-19T10:40:49;13.20;99.90
59857;DHT22;45733;52.668;6.860;2023-10-19T10:43:17;13.50;99.90
59857;DHT22;45733;52.668;6.860;2023-10-19T10:45:43;13.70;99.90
59857;DHT22;45733;52.668;6.860;2023-10-19T10:48:17;13.50;99.90
59857;DHT22;45733;52.668;6.860;2023-10-19T10:50:44;13.90;99.90
59857;DHT22;45733;52.668;6.860;2023-10-19T10:53:14;13.60;99.90
59857;DHT22;45733;52.668;6.860;2023-10-19T10:55:43;13.20;99.90
59857;DHT22;45733;52.668;6.860;2023-10-19T10:58:14;13.40;99.90
59857;DHT22;45733;52.668;6.860;2023-10-19T11:00:44;13.70;99.90
59857;DHT22;45733;52.668;6.860;2023-10-19T11:03:12;13.90;99.90
59857;DHT22;45733;52.668;6.860;2023-10-19T11:05:39;13.40;99.90
59857;DHT22;45733;52.668;6.860;2023-10-19T11:08:10;13.70;99.90
59857;DHT22;45733;52.668;6.860;2023-10-19T11:10:39;13.00;99.90
59857;DHT22;45733;52.668;6.860;2023-10-19T11:13:22;13.00;99.90
59857;DHT22;45733;52.668;6.860;2023-10-19T11:15:53;12.80;99.90
59857;DHT22;45733;52.668;6.860;2023-10-19T11:18:40;13.40;99.90
59857;DHT22;45733;52.668;6.860;2023-10-19T11:21:07;13.60;99.90
59857;DHT22;45733;52.668;6.860;2023-10-19T11:26:21;13.00;99.90
59857;DHT22;45733;52.668;6.860;2023-10-19T11:28:47;13.10;99.90
59857;DHT22;45733;52.668;6.860;2023-10-19T11:31:23;13.60;99.90
59857;DHT22;45733;52.668;6.860;2023-10-19T11:33:52;13.90;99.90
59857;DHT22;45733;52.668;6.860;2023-10-19T11:36:19;13.60;99.90
59857;DHT22;45733;52.668;6.860;2023-10-19T11:38:50;14.10;99.90
59857;DHT22;45733;52.668;6.860;2023-10-19T11:41:17;13.80;99.90
59857;DHT22;45733;52.668;6.860;2023-10-19T11:43:44;14.30;99.90
59857;DHT22;45733;52.668;6.860;2023-10-19T11:46:10;14.70;99.90
59857;DHT22;45733;52.668;6.860;2023-10-19T11:48:50;14.50;99.90
59857;DHT22;45733;52.668;6.860;2023-10-19T11:51:16;14.00;99.90
59857;DHT22;45733;52.668;6.860;2023-10-19T11:53:42;14.80;99.90
59857;DHT22;45733;52.668;6.860;2023-10-19T11:56:12;14.60;99.90
59857;DHT22;45733;52.668;6.860;2023-10-19T11:58:39;14.00;99.90
59857;DHT22;45733;52.668;6.860;2023-10-19T12:01:08;14.70;99.90
59857;DHT22;45733;52.668;6.860;2023-10-19T12:03:37;14.30;99.90
59857;DHT22;45733;52.668;6.860;2023-10-19T12:06:05;14.20;99.90
59857;DHT22;45733;52.668;6.860;2023-10-19T12:08:34;14.40;99.90
59857;DHT22;45733;52.668;6.860;2023-10-19T12:11:02;14.90;99.90
59857;DHT22;45733;52.668;6.860;2023-10-19T12:13:29;14.00;99.90
59857;DHT22;45733;52.668;6.860;2023-10-19T12:15:58;14.80;99.90
59857;DHT22;45733;52.668;6.860;2023-10-19T12:18:24;13.90;99.90
59857;DHT22;45733;52.668;6.860;2023-10-19T12:20:52;14.00;99.90
59857;DHT22;45733;52.668;6.860;2023-10-19T12:23:22;14.20;99.90
59857;DHT22;45733;52.668;6.860;2023-10-19T12:25:49;14.60;99.90
59857;DHT22;45733;52.668;6.860;2023-10-19T12:28:14;15.30;99.90
59857;DHT22;45733;52.668;6.860;2023-10-19T12:30:41;14.90;99.90
59857;DHT22;45733;52.668;6.860;2023-10-19T12:33:07;15.30;99.90
59857;DHT22;45733;52.668;6.860;2023-10-19T12:35:43;14.70;99.90
59857;DHT22;45733;52.668;6.860;2023-10-19T12:38:19;14.80;99.90
59857;DHT22;45733;52.668;6.860;2023-10-19T12:40:50;15.10;99.90
59857;DHT22;45733;52.668;6.860;2023-10-19T12:43:18;14.50;99.90
59857;DHT22;45733;52.668;6.860;2023-10-19T12:45:44;14.60;99.90
59857;DHT22;45733;52.668;6.860;2023-10-19T12:48:16;14.20;99.90
59857;DHT22;45733;52.668;6.860;2023-10-19T12:50:42;14.80;99.90
59857;DHT22;45733;52.668;6.860;2023-10-19T12:53:08;14.30;99.90
59857;DHT22;45733;52.668;6.860;2023-10-19T12:55:35;14.10;99.90
59857;DHT22;45733;52.668;6.860;2023-10-19T12:58:04;14.80;99.90
59857;DHT22;45733;52.668;6.860;2023-10-19T13:00:33;14.00;99.90
59857;DHT22;45733;52.668;6.860;2023-10-19T13:03:10;14.10;99.90
59857;DHT22;45733;52.668;6.860;2023-10-19T13:05:40;13.90;99.90
59857;DHT22;45733;52.668;6.860;2023-10-19T13:08:07;14.60;99.90
59857;DHT22;45733;52.668;6.860;2023-10-19T13:10:34;14.00;99.90
59857;DHT22;45733;52.668;6.860;2023-10-19T13:13:05;14.20;99.90
59857;DHT22;45733;52.668;6.860;2023-10-19T13:15:35;14.60;99.90
59857;DHT22;45733;52.668;6.860;2023-10-19T13:18:02;14.50;99.90
59857;DHT22;45733;52.668;6.860;2023-10-19T13:20:28;14.30;99.90
59857;DHT22;45733;52.668;6.860;2023-10-19T13:23:08;14.30;99.90
59857;DHT22;45733;52.668;6.860;2023-10-19T13:25:41;13.70;99.90
59857;DHT22;45733;52.668;6.860;2023-10-19T13:28:12;14.40;99.90
59857;DHT22;45733;52.668;6.860;2023-10-19T13:30:39;14.20;99.90
59857;DHT22;45733;52.668;6.860;2023-10-19T13:33:06;14.40;99.90
59857;DHT22;45733;52.668;6.860;2023-10-19T13:35:37;14.30;99.90
59857;DHT22;45733;52.668;6.860;2023-10-19T13:38:07;14.50;99.90
59857;DHT22;45733;52.668;6.860;2023-10-19T13:40:36;14.40;99.90
59857;DHT22;45733;52.668;6.860;2023-10-19T13:43:04;13.60;99.90
59857;DHT22;45733;52.668;6.860;2023-10-19T13:45:36;14.40;99.90
59857;DHT22;45733;52.668;6.860;2023-10-19T13:48:03;14.20;99.90
59857;DHT22;45733;52.668;6.860;2023-10-19T13:50:30;14.00;99.90
59857;DHT22;45733;52.668;6.860;2023-10-19T13:52:57;13.80;99.90
59857;DHT22;45733;52.668;6.860;2023-10-19T13:55:23;14.30;99.90
59857;DHT22;45733;52.668;6.860;2023-10-19T13:57:49;13.90;99.90
59857;DHT22;45733;52.668;6.860;2023-10-19T14:00:16;13.50;99.90
59857;DHT22;45733;52.668;6.860;2023-10-19T14:02:52;13.40;99.90
59857;DHT22;45733;52.668;6.860;2023-10-19T14:05:18;13.40;99.90
59857;DHT22;45733;52.668;6.860;2023-10-19T14:07:45;13.60;99.90
59857;DHT22;45733;52.668;6.860;2023-10-19T14:10:13;14.10;99.90
59857;DHT22;45733;52.668;6.860;2023-10-19T14:12:43;13.60;99.90
59857;DHT22;45733;52.668;6.860;2023-10-19T14:15:13;13.90;99.90
59857;DHT22;45733;52.668;6.860;2023-10-19T14:17:41;13.50;99.90
59857;DHT22;45733;52.668;6.860;2023-10-19T14:20:07;13.80;99.90
59857;DHT22;45733;52.668;6.860;2023-10-19T14:22:44;13.70;99.90
59857;DHT22;45733;52.668;6.860;2023-10-19T14:25:12;13.30;99.90
59857;DHT22;45733;52.668;6.860;2023-10-19T14:27:46;14.10;99.90
59857;DHT22;45733;52.668;6.860;2023-10-19T14:30:15;13.00;99.90
59857;DHT22;45733;52.668;6.860;2023-10-19T14:32:47;13.00;99.90
59857;DHT22;45733;52.668;6.860;2023-10-19T14:35:15;13.70;99.90
59857;DHT22;45733;52.668;6.860;2023-10-19T14:37:46;13.10;99.90
59857;DHT22;45733;52.668;6.860;2023-10-19T14:40:20;13.50;99.90
59857;DHT22;45733;52.668;6.860;2023-10-19T14:42:47;13.50;99.90
59857;DHT22;45733;52.668;6.860;2023-10-19T14:45:16;12.70;99.90
59857;DHT22;45733;52.668;6.860;2023-10-19T14:47:46;12.80;99.90
59857;DHT22;45733;52.668;6.860;2023-10-19T14:50:14;13.20;99.90
59857;DHT22;45733;52.668;6.860;2023-10-19T14:52:41;13.70;99.90
59857;DHT22;45733;52.668;6.860;2023-10-19T14:55:08;12.80;99.90
59857;DHT22;45733;52.668;6.860;2023-10-19T14:57:38;12.90;99.90
59857;DHT22;45733;52.668;6.860;2023-10-19T15:00:09;13.50;99.90
59857;DHT22;45733;52.668;6.860;2023-10-19T15:02:48;13.60;99.90
59857;DHT22;45733;52.668;6.860;2023-10-19T15:05:19;13.50;99.90
59857;DHT22;45733;52.668;6.860;2023-10-19T15:07:52;13.50;99.90
59857;DHT22;45733;52.668;6.860;2023-10-19T15:10:19;13.20;99.90
59857;DHT22;45733;52.668;6.860;2023-10-19T15:12:46;13.50;99.90
59857;DHT22;45733;52.668;6.860;2023-10-19T15:15:12;12.60;99.90
59857;DHT22;45733;52.668;6.860;2023-10-19T15:17:46;13.40;99.90
59857;DHT22;45733;52.668;6.860;2023-10-19T15:20:14;12.80;99.90
59857;DHT22;45733;52.668;6.860;2023-10-19T15:22:41;13.50;99.90
59857;DHT22;45733;52.668;6.860;2023-10-19T15:25:07;13.40;99.90
59857;DHT22;45733;52.668;6.860;2023-10-19T15:27:33;12.50;99.90
59857;DHT22;45733;52.668;6.860;2023-10-19T15:30:00;13.00;99.90
59857;DHT22;45733;52.668;6.860;2023-10-19T15:32:25;12.50;99.90
59857;DHT22;45733;52.668;6.860;2023-10-19T15:34:51;13.20;99.90
59857;DHT22;45733;52.668;6.860;2023-10-19T15:37:18;13.20;99.90
59857;DHT22;45733;52.668;6.860;2023-10-19T15:39:44;12.50;99.90
59857;DHT22;45733;52.668;6.860;2023-10-19T15:42:10;12.70;99.90
59857;DHT22;45733;52.668;6.860;2023-10-19T15:44:37;13.20;99.90
59857;DHT22;45733;52.668;6.860;2023-10-19T15:47:04;13.30;99.90
59857;DHT22;45733;52.668;6.860;2023-10-19T15:49:46;13.20;99.90
59857;DHT22;45733;52.668;6.860;2023-10-19T15:52:20;13.20;99.90
59857;DHT22;45733;52.668;6.860;2023-10-19T15:54:46;12.20;99.90
59857;DHT22;45733;52.668;6.860;2023-10-19T15:57:12;12.80;99.90
59857;DHT22;45733;52.668;6.860;2023-10-19T15:59:38;12.30;99.90
59857;DHT22;45733;52.668;6.860;2023-10-19T16:02:04;12.60;99.90
59857;DHT22;45733;52.668;6.860;2023-10-19T16:04:30;13.10;99.90
59857;DHT22;45733;52.668;6.860;2023-10-19T16:06:56;12.80;99.90